Time;durP1;ratioP1;P1;durP2;ratioP2;P2;SDS_P1;SDS_P2;PMS_P1;PMS_P2;Temp;Humidity;BMP_temperature;BMP_pressure;BME280_temperature;BME280_humidity;BME280_pressure;Samples;Min_cycle;Max_cycle;Signal;HPM_P1;HPM_P2
2023/10/10 00:02:42;;;;;;;12.50;5.30;;;;;;;13.56;90.91;98090.69;10278065;28;20067;-71
2023/10/10 00:08:05;;;;;;;9.02;4.57;;;;;;;13.45;90.97;98097.03;10278857;28;20399;-71
2023/10/10 00:13:26;;;;;;;9.23;4.70;;;;;;;13.36;91.37;98078.97;10285434;28;20062;-71
2023/10/10 00:18:49;;;;;;;10.70;4.75;;;;;;;13.31;91.51;98088.44;10298719;28;20051;-70
2023/10/10 00:24:12;;;;;;;13.32;4.72;;;;;;;13.30;91.54;98086.97;10270604;28;20043;-71
2023/10/10 00:29:33;;;;;;;9.57;4.22;;;;;;;13.29;91.31;98087.59;10298854;28;20046;-71
2023/10/10 00:34:55;;;;;;;10.15;4.30;;;;;;;13.35;91.29;98088.72;10297613;28;20433;-70
2023/10/10 00:40:29;;;;;;;9.35;4.38;;;;;;;13.41;91.20;98085.53;10296079;28;20054;-70
2023/10/10 00:45:54;;;;;;;8.60;4.55;;;;;;;13.52;91.12;98089.72;10302185;28;20065;-71
2023/10/10 00:51:21;;;;;;;7.00;3.60;;;;;;;13.60;90.97;98076.16;10273223;28;20067;-71
2023/10/10 00:56:44;;;;;;;10.75;4.82;;;;;;;13.56;90.44;98070.34;10291365;28;20062;-74
2023/10/10 01:02:05;;;;;;;9.45;4.68;;;;;;;13.52;90.60;98070.09;10292945;28;20054;-72
2023/10/10 01:07:27;;;;;;;7.15;3.95;;;;;;;13.48;90.92;98073.38;10255691;29;20098;-70
2023/10/10 01:12:48;;;;;;;10.35;4.18;;;;;;;13.54;90.66;98082.16;10277113;28;20043;-70
2023/10/10 01:18:13;;;;;;;11.13;4.50;;;;;;;13.64;90.49;98082.03;10269695;28;20067;-71
2023/10/10 01:23:37;;;;;;;8.98;4.22;;;;;;;13.68;90.22;98073.88;10270101;28;20122;-71
2023/10/10 01:29:12;;;;;;;10.65;4.07;;;;;;;13.77;90.13;98078.63;10269452;28;20050;-70
2023/10/10 01:34:43;;;;;;;10.88;4.75;;;;;;;13.80;89.95;98079.47;10257694;28;20478;-71
2023/10/10 01:40:17;;;;;;;12.52;4.78;;;;;;;13.88;90.01;98091.19;10282180;28;20051;-71
2023/10/10 01:45:41;;;;;;;9.30;4.45;;;;;;;13.92;89.56;98086.56;10282171;28;20628;-70
2023/10/10 01:51:03;;;;;;;10.13;4.38;;;;;;;13.92;89.58;98086.56;10255256;29;20043;-71
2023/10/10 01:56:26;;;;;;;10.10;5.18;;;;;;;13.94;89.41;98078.25;10268770;28;20544;-71
2023/10/10 02:01:48;;;;;;;;;;;;;;;13.90;89.31;98075.22;10268165;28;20043;-70
2023/10/10 02:07:22;;;;;;;11.45;4.45;;;;;;;13.90;89.50;98080.84;10291283;28;19957;-71
2023/10/10 02:12:44;;;;;;;;;;;;;;;13.90;89.30;98078.03;10283158;28;20047;-70
2023/10/10 02:18:12;;;;;;;11.05;4.13;;;;;;;13.89;89.19;98093.38;10294074;28;19933;-70
2023/10/10 02:23:34;;;;;;;9.20;4.32;;;;;;;13.83;89.12;98097.91;10292804;28;20070;-70
2023/10/10 02:34:37;;;;;;;10.38;3.95;;;;;;;13.77;89.06;98092.66;10268271;28;20043;-71
2023/10/10 02:45:28;;;;;;;8.43;4.00;;;;;;;13.78;89.11;98096.19;10280888;28;20042;-71
2023/10/10 02:50:51;;;;;;;10.77;4.25;;;;;;;13.75;88.83;98100.94;10292857;28;20489;-71
2023/10/10 02:56:18;;;;;;;8.20;4.20;;;;;;;13.72;88.96;98111.31;10293412;28;20117;-71
2023/10/10 03:07:20;;;;;;;9.25;4.25;;;;;;;13.70;89.16;98105.59;10281141;28;20058;-71
2023/10/10 03:12:51;;;;;;;8.15;3.90;;;;;;;13.74;89.00;98119.13;10293936;28;20067;-70
2023/10/10 03:23:43;;;;;;;10.90;4.47;;;;;;;13.84;88.68;98122.56;10291012;28;20117;-70
2023/10/10 03:29:36;;;;;;;7.50;4.32;;;;;;;13.86;88.53;98128.28;10285000;28;20481;-70
2023/10/10 03:35:06;;;;;;;11.38;4.30;;;;;;;13.90;88.62;98122.19;10293210;28;20043;-71
2023/10/10 05:28:21;;;;;;;13.25;5.35;;;;;;;13.68;87.86;98141.19;10284666;28;20051;-71
2023/10/10 05:33:41;;;;;;;11.63;5.50;;;;;;;13.70;87.36;98130.09;10320321;28;20042;-70
2023/10/10 05:39:03;;;;;;;9.50;5.60;;;;;;;13.73;87.80;98138.03;10322105;28;20051;-70
2023/10/10 05:44:23;;;;;;;9.40;5.55;;;;;;;13.78;87.60;98110.94;10335565;28;20045;-71
2023/10/10 05:49:44;;;;;;;15.30;5.90;;;;;;;14.43;88.55;98116.88;10306901;28;20544;-71
2023/10/10 05:55:06;;;;;;;8.68;5.15;;;;;;;15.55;87.05;98134.44;10281639;28;20066;-71
2023/10/10 06:00:26;;;;;;;8.38;4.57;;;;;;;15.88;82.81;98143.28;10267906;28;20335;-71
2023/10/10 06:05:49;;;;;;;10.23;5.03;;;;;;;15.18;83.65;98157.75;10280871;28;20062;-70
2023/10/10 06:11:13;;;;;;;9.25;5.20;;;;;;;14.83;84.23;98160.66;10280882;28;20039;-70
2023/10/10 06:16:36;;;;;;;10.70;5.05;;;;;;;14.66;84.70;98166.69;10277809;28;20117;-69
2023/10/10 06:22:02;;;;;;;11.55;5.57;;;;;;;14.60;84.92;98181.13;10291479;28;20382;-70
2023/10/10 06:27:28;;;;;;;11.75;5.45;;;;;;;14.96;84.76;98171.28;10292786;28;20493;-70
2023/10/10 06:32:51;;;;;;;11.05;4.85;;;;;;;16.46;84.24;98186.41;10280361;28;20047;-71
2023/10/10 06:38:12;;;;;;;12.65;5.25;;;;;;;17.91;79.50;98186.44;10280447;28;20070;-71
2023/10/10 06:43:33;;;;;;;8.57;4.10;;;;;;;18.29;78.29;98166.94;10293051;28;20039;-71
2023/10/10 06:49:04;;;;;;;10.05;4.97;;;;;;;18.82;77.37;98169.25;10294004;28;20541;-71
2023/10/10 06:54:27;;;;;;;8.30;4.45;;;;;;;19.90;73.30;98177.09;10291679;28;20166;-69
2023/10/10 06:59:50;;;;;;;11.20;4.88;;;;;;;20.08;72.13;98184.84;10317126;28;20130;-69
2023/10/10 07:05:15;;;;;;;6.60;4.00;;;;;;;19.35;70.89;98188.38;10252950;29;20059;-69
2023/10/10 07:10:37;;;;;;;8.73;4.45;;;;;;;20.12;71.46;98182.88;10252504;29;20209;-69
2023/10/10 07:16:01;;;;;;;9.48;4.50;;;;;;;20.45;68.22;98186.91;10301464;28;20066;-69
2023/10/10 07:21:36;;;;;;;12.80;4.57;;;;;;;20.23;67.36;98170.53;10324847;28;20101;-69
2023/10/10 07:27:05;;;;;;;10.93;5.00;;;;;;;20.03;66.19;98172.63;10326734;28;20038;-69
2023/10/10 07:32:29;;;;;;;10.30;4.38;;;;;;;24.04;63.53;98180.88;10341300;28;20130;-69
2023/10/10 07:37:52;;;;;;;7.07;4.03;;;;;;;24.67;55.91;98182.16;10341002;28;20043;-69
2023/10/10 07:43:14;;;;;;;;;;;;;;;22.67;56.69;98174.69;10341159;28;20114;-69
2023/10/10 07:54:02;;;;;;;8.85;3.83;;;;;;;29.33;50.01;98193.13;10260003;28;20070;-71
2023/10/10 07:59:22;;;;;;;9.77;4.05;;;;;;;31.26;42.76;98191.78;10286406;28;20520;-72
2023/10/10 08:04:49;;;;;;;6.43;3.22;;;;;;;32.97;38.77;98192.09;10285408;28;20082;-71
2023/10/10 08:15:50;;;;;;;7.18;3.58;;;;;;;36.61;31.79;98197.91;10299686;28;20050;-72
2023/10/10 08:21:12;;;;;;;6.28;3.60;;;;;;;37.76;28.75;98195.75;10299671;28;20077;-73
2023/10/10 08:26:39;;;;;;;7.38;3.65;;;;;;;38.26;26.45;98199.06;10284735;28;20067;-72
2023/10/10 08:32:00;;;;;;;4.45;3.00;;;;;;;39.75;25.19;98213.66;10297644;28;20051;-72
2023/10/10 08:37:26;;;;;;;5.25;3.40;;;;;;;38.31;23.47;98190.88;10297557;28;20123;-71
2023/10/10 08:42:49;;;;;;;8.57;3.47;;;;;;;33.51;26.69;98196.31;10295051;28;20093;-71
2023/10/10 08:48:13;;;;;;;7.07;3.42;;;;;;;30.00;29.88;98203.16;10296174;28;20046;-71
2023/10/10 08:53:38;;;;;;;8.15;3.95;;;;;;;27.39;32.81;98205.19;10295509;28;20039;-71
2023/10/10 08:59:01;;;;;;;7.30;3.85;;;;;;;26.86;35.17;98204.69;10279887;28;20123;-72
2023/10/10 09:04:27;;;;;;;7.00;3.75;;;;;;;26.92;35.70;98201.16;10293068;28;20083;-70
2023/10/10 09:10:04;;;;;;;7.72;4.07;;;;;;;26.03;36.75;98197.94;10292161;28;20055;-70
2023/10/10 09:15:27;;;;;;;6.72;3.70;;;;;;;25.13;38.24;98198.69;10292493;28;20050;-71
2023/10/10 09:20:48;;;;;;;6.47;3.65;;;;;;;24.91;39.30;98190.44;10282889;28;20084;-70
2023/10/10 09:26:29;;;;;;;5.60;3.50;;;;;;;25.05;40.18;98205.72;10282392;28;20148;-72
2023/10/10 09:31:59;;;;;;;7.97;4.32;;;;;;;25.83;40.72;98201.97;10296054;28;20569;-71
2023/10/10 09:37:29;;;;;;;6.80;4.03;;;;;;;27.25;38.19;98191.47;10283561;28;20121;-72
2023/10/10 09:48:59;;;;;;;6.78;4.40;;;;;;;26.85;38.80;98203.25;10295477;28;20113;-69
2023/10/10 09:54:16;;;;;;;7.15;3.78;;;;;;;27.06;39.32;98204.91;10285312;28;20069;-73
2023/10/10 09:59:37;;;;;;;7.05;3.95;;;;;;;29.30;37.25;98205.38;10268168;28;20511;-72
2023/10/10 10:04:59;;;;;;;10.55;3.92;;;;;;;30.73;35.68;98218.03;10280784;28;20082;-74
2023/10/10 10:10:33;;;;;;;8.07;4.05;;;;;;;30.95;34.11;98220.06;10294077;28;20567;-80
2023/10/10 10:16:08;;;;;;;7.30;3.80;;;;;;;30.46;33.44;98220.31;10280358;28;20120;-78
2023/10/10 10:21:31;;;;;;;7.97;4.03;;;;;;;29.93;33.38;98217.56;10294885;28;20054;-77
2023/10/10 10:27:24;;;;;;;6.90;4.10;;;;;;;28.50;35.14;98218.84;10293397;28;20049;-75
2023/10/10 10:32:46;;;;;;;9.60;4.10;;;;;;;28.40;34.58;98213.06;10279120;28;20464;-75
2023/10/10 10:38:10;;;;;;;9.10;4.03;;;;;;;26.66;35.51;98218.81;10270391;28;20043;-76
2023/10/10 10:43:39;;;;;;;6.35;3.88;;;;;;;24.93;37.49;98204.75;10272591;28;20047;-76
2023/10/10 10:49:05;;;;;;;9.02;3.88;;;;;;;25.00;39.00;98209.16;10285031;28;20077;-76
2023/10/10 10:54:37;;;;;;;6.78;4.18;;;;;;;24.49;39.01;98203.22;10271477;28;20113;-75
2023/10/10 10:59:58;;;;;;;7.25;4.13;;;;;;;23.64;39.93;98202.09;10285063;28;20129;-71
2023/10/10 11:05:26;;;;;;;10.90;3.55;;;;;;;22.61;41.44;98194.47;10283838;28;20089;-67
2023/10/10 11:10:47;;;;;;;5.57;3.42;;;;;;;21.78;42.50;98197.72;10296447;28;20062;-68
2023/10/10 11:16:10;;;;;;;5.93;2.92;;;;;;;21.13;43.40;98191.41;10267018;28;20062;-68
2023/10/10 11:21:31;;;;;;;7.18;3.50;;;;;;;21.27;45.19;98191.16;10277404;28;20137;-70
2023/10/10 11:32:45;;;;;;;5.28;2.95;;;;;;;28.85;40.23;98181.56;10296924;28;20051;-72
2023/10/10 11:38:09;;;;;;;6.25;2.90;;;;;;;28.84;37.71;98186.59;10281926;28;20039;-72
2023/10/10 11:43:30;;;;;;;7.93;3.00;;;;;;;27.24;37.33;98177.88;10281504;28;20043;-72
2023/10/10 11:48:54;;;;;;;7.18;2.90;;;;;;;25.81;38.53;98186.94;10282161;28;20066;-72
2023/10/10 11:54:25;;;;;;;5.28;2.60;;;;;;;24.82;40.09;98178.88;10276130;28;20121;-74
2023/10/10 11:59:46;;;;;;;5.95;3.25;;;;;;;25.51;40.26;98185.03;10284184;28;20063;-72
2023/10/10 12:10:52;;;;;;;4.43;2.42;;;;;;;25.23;39.94;98185.31;10288002;28;20067;-73
2023/10/10 12:16:12;;;;;;;5.72;2.03;;;;;;;24.47;40.59;98186.06;10256070;28;20128;-71
2023/10/10 12:21:33;;;;;;;7.50;2.00;;;;;;;24.28;40.75;98181.38;10316685;28;20515;-74
2023/10/10 12:26:54;;;;;;;7.72;2.35;;;;;;;24.45;40.42;98179.59;10231190;29;20039;-74
2023/10/10 12:32:15;;;;;;;5.82;2.13;;;;;;;24.98;40.68;98172.00;10259016;28;20051;-74
2023/10/10 12:37:38;;;;;;;4.20;1.80;;;;;;;25.77;39.28;98170.44;10244484;29;20087;-72
2023/10/10 12:43:01;;;;;;;4.90;2.00;;;;;;;26.06;38.77;98165.84;10257718;29;20051;-71
2023/10/10 12:48:21;;;;;;;5.10;2.53;;;;;;;25.60;38.55;98168.75;10258267;29;20067;-71
2023/10/10 12:53:43;;;;;;;4.95;2.17;;;;;;;24.73;38.67;98165.13;10277226;28;20049;-70
2023/10/10 12:59:07;;;;;;;8.17;2.10;;;;;;;24.54;39.47;98166.94;10309471;28;20101;-71
2023/10/10 13:04:46;;;;;;;4.07;1.85;;;;;;;24.95;39.25;98168.38;10300494;28;20174;-71
2023/10/10 13:10:10;;;;;;;5.27;2.50;;;;;;;25.96;38.25;98157.09;10309405;28;20121;-74
2023/10/10 13:15:46;;;;;;;5.38;1.73;;;;;;;26.49;37.61;98152.78;10310231;28;20059;-74
2023/10/10 13:21:07;;;;;;;5.03;1.63;;;;;;;26.91;36.78;98148.16;10296050;28;20070;-73
2023/10/10 13:26:28;;;;;;;5.25;1.73;;;;;;;26.80;36.80;98150.94;10295713;28;20082;-68
2023/10/10 13:31:49;;;;;;;4.90;2.00;;;;;;;26.60;36.13;98153.59;10295252;28;20097;-66
2023/10/10 13:37:11;;;;;;;10.00;2.17;;;;;;;26.33;36.48;98151.84;10295593;28;20058;-71
2023/10/10 13:42:32;;;;;;;4.05;1.50;;;;;;;25.92;36.63;98152.06;10294973;28;20066;-74
2023/10/10 13:47:52;;;;;;;5.05;1.70;;;;;;;25.58;36.97;98152.28;10294971;28;20081;-73
2023/10/10 13:53:15;;;;;;;3.80;1.70;;;;;;;25.08;37.08;98152.19;10295684;28;20073;-70
2023/10/10 13:58:47;;;;;;;3.67;1.88;;;;;;;25.06;37.10;98146.47;10290989;28;20043;-77
2023/10/10 14:04:15;;;;;;;5.85;1.80;;;;;;;25.16;37.59;98146.63;10298229;28;20524;-75
2023/10/10 14:09:37;;;;;;;4.13;2.28;;;;;;;24.97;37.35;98144.84;10292886;28;20174;-71
2023/10/10 14:15:21;;;;;;;4.60;2.08;;;;;;;24.51;37.93;98142.59;10291466;28;20485;-71
2023/10/10 14:20:43;;;;;;;5.25;2.35;;;;;;;24.10;38.50;98133.22;10293314;28;20118;-71
2023/10/10 14:26:18;;;;;;;4.47;1.80;;;;;;;24.10;39.08;98130.38;10279199;28;20043;-72
2023/10/10 14:31:42;;;;;;;4.97;2.10;;;;;;;23.96;39.45;98135.81;10291348;28;20047;-71
2023/10/10 14:37:09;;;;;;;6.07;2.28;;;;;;;23.98;40.60;98141.53;10288482;28;20234;-70
2023/10/10 14:42:54;;;;;;;6.05;2.40;;;;;;;23.31;42.30;98123.66;10289693;28;20485;-71
2023/10/10 14:48:18;;;;;;;4.85;2.90;;;;;;;23.20;43.25;98138.34;10263160;28;20058;-67
2023/10/10 14:53:40;;;;;;;7.13;3.08;;;;;;;22.92;43.41;98139.09;10277315;28;20049;-71
2023/10/10 14:59:07;;;;;;;5.47;3.10;;;;;;;22.89;44.27;98146.13;10275462;28;20070;-76
2023/10/10 15:04:33;;;;;;;8.27;2.92;;;;;;;22.91;44.56;98146.19;10274886;28;20086;-71
2023/10/10 15:09:57;;;;;;;6.88;3.22;;;;;;;22.62;44.98;98139.00;10276645;28;20043;-81
2023/10/10 15:15:17;;;;;;;4.80;3.60;;;;;;;21.98;46.28;98145.03;10290862;28;20043;-75
2023/10/10 15:20:45;;;;;;;7.65;3.65;;;;;;;21.31;47.21;98147.97;10277598;28;20053;-75
2023/10/10 15:26:17;;;;;;;6.03;3.58;;;;;;;20.94;48.60;98143.19;10292047;28;20536;-78
2023/10/10 15:31:39;;;;;;;5.88;3.30;;;;;;;20.60;49.20;98145.59;10292746;28;20066;-74
2023/10/10 15:37:09;;;;;;;8.43;3.55;;;;;;;20.30;50.11;98145.97;10278741;28;20047;-74
2023/10/10 15:42:32;;;;;;;8.38;3.72;;;;;;;20.11;51.26;98146.69;10286262;28;20126;-84
2023/10/10 15:47:54;;;;;;;7.55;4.65;;;;;;;19.91;51.83;98161.56;10286329;28;20073;-73
2023/10/10 15:53:15;;;;;;;7.88;4.32;;;;;;;19.70;52.60;98151.56;10299483;28;20074;-75
2023/10/10 15:58:39;;;;;;;10.50;4.75;;;;;;;19.47;53.76;98145.66;10299505;28;20520;-73
2023/10/10 16:04:05;;;;;;;;;;;;;;;19.26;56.05;98149.81;10285978;28;20090;-75
2023/10/10 16:09:32;;;;;;;7.75;4.30;;;;;;;19.10;55.19;98144.22;10298825;28;20014;-77
2023/10/10 16:14:52;;;;;;;11.93;4.75;;;;;;;18.90;56.17;98138.47;10299208;28;20071;-72
2023/10/10 16:20:15;;;;;;;9.00;4.88;;;;;;;18.77;56.82;98150.66;10298344;28;20126;-70
2023/10/10 16:25:36;;;;;;;8.53;4.57;;;;;;;18.65;57.42;98144.50;10298569;28;20043;-71
2023/10/10 16:30:58;;;;;;;11.47;4.60;;;;;;;18.57;58.05;98147.66;10290776;28;20077;-76
2023/10/10 16:36:18;;;;;;;10.75;4.28;;;;;;;18.47;58.09;98144.41;10247606;28;20039;-79
2023/10/10 16:41:39;;;;;;;7.57;4.13;;;;;;;18.31;59.16;98153.63;10281050;28;20042;-75
2023/10/10 16:47:00;;;;;;;10.27;4.80;;;;;;;18.16;59.11;98148.00;10274023;28;20058;-77
2023/10/10 16:52:25;;;;;;;9.25;5.13;;;;;;;18.00;59.56;98148.75;10281965;28;20110;-84
2023/10/10 16:57:47;;;;;;;12.45;5.38;;;;;;;17.84;61.16;98145.19;10270652;28;20560;-69
2023/10/10 17:03:11;;;;;;;9.35;5.53;;;;;;;17.69;61.33;98138.16;10282661;28;20409;-70
2023/10/10 17:08:33;;;;;;;15.52;6.28;;;;;;;17.59;61.62;98145.41;10268117;28;20177;-66
2023/10/10 17:13:54;;;;;;;12.50;6.70;;;;;;;17.59;61.96;98136.94;10280873;28;20066;-67
2023/10/10 17:19:16;;;;;;;12.70;6.20;;;;;;;17.64;62.99;98147.78;10280837;28;20067;-69
2023/10/10 17:24:37;;;;;;;10.17;6.70;;;;;;;17.69;63.69;98143.06;10267737;28;20522;-70
2023/10/10 17:29:58;;;;;;;14.27;6.65;;;;;;;17.75;63.75;98149.00;10280783;28;20058;-74
2023/10/10 17:35:19;;;;;;;12.25;6.97;;;;;;;17.79;64.44;98146.38;10280504;28;20089;-73
2023/10/10 17:40:40;;;;;;;14.25;7.10;;;;;;;17.87;64.34;98149.56;10266762;28;20118;-68
2023/10/10 17:46:00;;;;;;;13.48;7.07;;;;;;;17.89;64.71;98146.84;10312451;28;20476;-73
2023/10/10 17:51:23;;;;;;;11.93;5.93;;;;;;;17.89;64.98;98149.66;10319936;28;20162;-74
2023/10/10 17:56:45;;;;;;;14.77;6.10;;;;;;;17.93;65.27;98151.94;10293449;28;20042;-74
2023/10/10 18:02:08;;;;;;;9.98;5.80;;;;;;;17.95;65.34;98149.19;10323337;28;20050;-75
2023/10/10 18:07:39;;;;;;;8.95;5.57;;;;;;;17.95;65.48;98147.13;10534257;28;20711;-75
2023/10/10 18:13:04;;;;;;;9.80;6.07;;;;;;;17.94;65.86;98144.91;10520970;28;20120;-74
2023/10/10 18:18:28;;;;;;;14.40;6.13;;;;;;;17.93;65.92;98141.34;10533110;28;20079;-74
2023/10/10 18:23:50;;;;;;;8.82;5.13;;;;;;;17.96;66.12;98142.91;10492915;28;20397;-71
2023/10/10 18:29:11;;;;;;;14.10;5.55;;;;;;;17.92;66.40;98139.91;10500313;28;20091;-70
2023/10/10 18:34:31;;;;;;;10.50;5.32;;;;;;;17.91;66.63;98137.72;10462516;28;20110;-70
2023/10/10 18:39:52;;;;;;;11.05;6.18;;;;;;;17.88;66.60;98139.72;10476378;28;20071;-68
2023/10/10 18:45:15;;;;;;;11.43;5.60;;;;;;;17.84;67.08;98125.41;10476401;28;20111;-68
2023/10/10 18:50:36;;;;;;;14.90;5.23;;;;;;;17.82;67.24;98124.59;10463589;28;20116;-69
2023/10/10 18:55:58;;;;;;;11.88;5.57;;;;;;;17.80;67.10;98128.06;10470022;28;20060;-70
2023/10/10 19:01:21;;;;;;;10.93;4.72;;;;;;;17.78;67.60;98118.78;10454477;28;20041;-70
2023/10/10 19:06:43;;;;;;;10.57;5.22;;;;;;;17.80;67.50;98130.16;10440816;28;20172;-80
2023/10/10 19:12:04;;;;;;;10.75;4.80;;;;;;;17.77;67.53;98132.16;10427167;28;20479;-71
2023/10/10 19:17:27;;;;;;;10.75;5.40;;;;;;;17.71;67.83;98117.78;10393633;28;20069;-71
2023/10/10 19:22:49;;;;;;;11.10;5.23;;;;;;;17.67;68.35;98111.91;10384640;28;20038;-66
2023/10/10 19:28:10;;;;;;;9.65;5.38;;;;;;;17.64;68.08;98102.63;10385135;28;20061;-68
2023/10/10 19:33:31;;;;;;;11.40;5.35;;;;;;;17.59;68.00;98098.16;10404455;28;20137;-67
2023/10/10 19:38:53;;;;;;;9.55;4.80;;;;;;;17.60;68.35;98096.78;10400052;28;20050;-67
2023/10/10 19:44:14;;;;;;;13.27;4.90;;;;;;;17.61;68.13;98094.69;10401407;28;20121;-67
2023/10/10 19:49:36;;;;;;;8.75;4.57;;;;;;;17.55;68.39;98088.75;10410446;28;20069;-67
2023/10/10 19:54:56;;;;;;;12.63;5.25;;;;;;;17.49;68.09;98092.06;10404908;28;20148;-67
2023/10/10 20:00:42;;;;;;;11.70;4.95;;;;;;;17.42;68.46;98091.03;10396133;28;20057;-67
2023/10/10 20:06:06;;;;;;;10.90;5.10;;;;;;;17.27;69.00;98094.56;10417971;28;20072;-68
2023/10/10 20:11:27;;;;;;;13.88;5.47;;;;;;;17.16;69.13;98081.34;10418293;28;20072;-68
2023/10/10 20:16:49;;;;;;;9.32;5.03;;;;;;;17.08;69.50;98092.22;10418335;28;20056;-68
2023/10/10 20:22:13;;;;;;;10.55;5.53;;;;;;;16.97;69.89;98079.03;10417793;28;20065;-68
2023/10/10 20:27:34;;;;;;;12.68;5.57;;;;;;;16.95;69.83;98071.19;10394273;28;20121;-68
2023/10/10 20:32:55;;;;;;;10.07;4.47;;;;;;;16.84;70.32;98067.16;10389017;28;20228;-68
2023/10/10 20:38:18;;;;;;;11.32;4.53;;;;;;;16.79;70.55;98073.97;10417425;28;20069;-68
2023/10/10 20:43:41;;;;;;;13.57;5.22;;;;;;;16.74;70.67;98069.50;10417869;28;20498;-67
2023/10/10 20:49:01;;;;;;;13.23;5.63;;;;;;;16.68;71.27;98076.88;10416768;28;20069;-68
2023/10/10 20:54:22;;;;;;;12.35;5.28;;;;;;;16.62;71.80;98073.78;10401876;28;20045;-68
2023/10/10 20:59:45;;;;;;;12.27;5.20;;;;;;;16.57;71.93;98067.94;10443739;28;20486;-67
2023/10/10 21:05:06;;;;;;;14.98;5.18;;;;;;;16.54;72.12;98074.13;10434671;28;20057;-68
2023/10/10 21:10:31;;;;;;;15.00;5.63;;;;;;;16.52;72.48;98057.13;10416747;28;20125;-68
2023/10/10 21:15:52;;;;;;;11.90;4.53;;;;;;;16.52;72.66;98054.28;10402489;28;20075;-68
2023/10/10 21:21:14;;;;;;;13.73;5.10;;;;;;;16.52;72.51;98054.28;10415606;28;20522;-68
2023/10/10 21:26:36;;;;;;;12.13;4.70;;;;;;;16.53;72.77;98052.94;10401419;28;20037;-68
2023/10/10 21:31:57;;;;;;;8.93;4.70;;;;;;;16.53;72.90;98044.47;10401767;28;20444;-68
2023/10/10 21:37:18;;;;;;;8.77;4.38;;;;;;;16.56;72.91;98048.84;10434319;28;20120;-68
2023/10/10 21:42:45;;;;;;;10.95;4.85;;;;;;;16.62;72.74;98045.59;10449701;28;20117;-68
2023/10/10 21:48:09;;;;;;;16.33;4.55;;;;;;;16.63;72.64;98042.16;10414628;28;20148;-68
2023/10/10 21:53:30;;;;;;;12.05;4.32;;;;;;;16.60;72.70;98038.50;10401501;28;20065;-68
2023/10/10 21:58:51;;;;;;;10.27;4.63;;;;;;;16.58;72.64;98034.84;10401078;28;20072;-68
2023/10/10 22:04:14;;;;;;;13.55;5.00;;;;;;;16.61;72.46;98022.34;10414261;28;20046;-68
2023/10/10 22:09:37;;;;;;;13.52;5.30;;;;;;;16.68;72.42;98026.91;10373653;28;20125;-68
2023/10/10 22:14:58;;;;;;;9.63;4.20;;;;;;;16.71;71.83;98028.50;10387242;28;20092;-68
2023/10/10 22:20:18;;;;;;;13.82;4.53;;;;;;;16.76;71.47;98023.75;10359659;28;20564;-68
2023/10/10 22:25:40;;;;;;;14.23;4.45;;;;;;;16.76;70.89;98032.22;10372941;28;20065;-68
2023/10/10 22:31:00;;;;;;;16.05;4.43;;;;;;;16.74;70.96;98032.84;10359630;28;20049;-68
2023/10/10 22:36:21;;;;;;;15.30;4.90;;;;;;;16.71;71.05;98034.13;10386992;28;20108;-68
2023/10/10 22:41:42;;;;;;;11.77;4.63;;;;;;;16.66;70.87;98012.69;10355489;28;20412;-67
2023/10/10 22:47:03;;;;;;;14.18;4.38;;;;;;;16.61;71.04;98030.78;10372764;28;20492;-68
2023/10/10 22:52:24;;;;;;;11.02;4.43;;;;;;;16.59;71.18;98022.22;10390837;28;20070;-68
2023/10/10 22:57:46;;;;;;;9.00;4.22;;;;;;;16.57;71.22;98027.75;10366568;28;20404;-68
2023/10/10 23:03:09;;;;;;;12.45;4.60;;;;;;;16.51;71.22;98025.41;10432030;28;20056;-68
2023/10/10 23:08:31;;;;;;;12.52;4.82;;;;;;;16.49;71.34;98022.44;10462900;28;20044;-68
2023/10/10 23:13:52;;;;;;;12.52;4.60;;;;;;;16.46;71.26;98025.81;10461968;28;20077;-68
2023/10/10 23:19:12;;;;;;;11.45;4.40;;;;;;;16.42;71.13;98023.53;10447636;28;20067;-68
2023/10/10 23:24:33;;;;;;;14.27;4.60;;;;;;;16.37;71.26;98016.22;10451946;28;20124;-68
2023/10/10 23:29:54;;;;;;;12.45;5.10;;;;;;;16.34;71.25;98013.97;10438161;28;20069;-68
2023/10/10 23:35:21;;;;;;;12.77;4.80;;;;;;;16.32;71.08;98006.13;10460874;28;20068;-68
2023/10/10 23:40:44;;;;;;;11.75;4.82;;;;;;;16.27;71.18;98013.66;10447677;28;20057;-67
2023/10/10 23:46:06;;;;;;;14.48;4.93;;;;;;;16.23;71.19;98016.28;10461636;28;20151;-67
2023/10/10 23:51:27;;;;;;;11.60;4.88;;;;;;;16.18;71.23;98017.41;10460333;28;20061;-67
2023/10/10 23:56:48;;;;;;;13.00;5.03;;;;;;;16.16;71.31;98014.50;10460301;28;20064;-67
